Cedar Creek (Missouri), Pleasant View (06919500)

StateMissouriCurrentPotential (148 cfs)
RiverCedar CreekFlood - The river is flooding. Obstacles can be treacherous or deadly. The river should be avoided at this stage for casual trips and definitely for the inexperienced. Trips should be attempted only with protective gear and equipment.Flood(none)
Updated2019-12-13 19:30 (1 hour ago)High - The river is high and potentially dangerous, especially for the young and / or inexperienced. Normal stream obstacles are sometimes difficult to navigate. Extended distances can be attempted, but canoe travel may not be advisable.High(none)
Discharge148 cfs (median: 62 cfs)Good - Conditions are ideal for a canoe or kayak. Boats typically will drag on fewer than one-quarter of riffles, if at all, and portages are unnecessary or rare. Normal float lengths can be attempted without a problem.Good(none)
Height4.32 feetLow - River is low but can still be floated. Some riffles are okay but most come with significant dragging and might need a portage. Float lengths should be reduced to accommodate low flow, dragging, and portages.Low(none)
TrendSteady (falling over 24 hours)Poor - River is too low to float comfortably. Most or all riffles will drag or must be portaged and some obstacles (such as slick shelf rock) cause undue problems. Avoid the river at this stage for casual paddling trips.Poor(none)
USGSExternal icon USGS Site for Pleasant View (06919500)LocationExternal icon Google Maps

Trending Data

Plot Image
ObservationHeightDischargeMaximum
Discharge
Minimum
Discharge
Mean
Discharge
P05P10P20P25P50
(Median)
P75P80P90P95
2019-12-13 19:30 4.32 148 3860 (1924) 0 (1954) 252 0 1 10 15 62 260 350 577 1090
2019-12-13 18:30 4.32 148 3860 (1924) 0 (1954) 252 0 1 10 15 62 260 350 577 1090
2019-12-13 17:30 4.32 148 3860 (1924) 0 (1954) 252 0 1 10 15 62 260 350 577 1090
2019-12-13 16:30 4.32 148 3860 (1924) 0 (1954) 252 0 1 10 15 62 260 350 577 1090
2019-12-13 15:30 4.33 150 3860 (1924) 0 (1954) 252 0 1 10 15 62 260 350 577 1090
2019-12-13 14:30 4.33 150 3860 (1924) 0 (1954) 252 0 1 10 15 62 260 350 577 1090
2019-12-13 13:30 4.33 150 3860 (1924) 0 (1954) 252 0 1 10 15 62 260 350 577 1090
2019-12-13 12:30 4.33 150 3860 (1924) 0 (1954) 252 0 1 10 15 62 260 350 577 1090
2019-12-12 21:30 4.36 154 3300 (1986) 0 (1954) 292 0 1 9 14 69 227 302 697 2260
2019-12-12 20:30 4.37 156 3300 (1986) 0 (1954) 292 0 1 9 14 69 227 302 697 2260
2019-12-12 19:30 4.37 156 3300 (1986) 0 (1954) 292 0 1 9 14 69 227 302 697 2260
2019-12-12 18:30 4.37 156 3300 (1986) 0 (1954) 292 0 1 9 14 69 227 302 697 2260
2019-12-12 17:30 4.38 157 3300 (1986) 0 (1954) 292 0 1 9 14 69 227 302 697 2260
2019-12-12 16:30 4.38 157 3300 (1986) 0 (1954) 292 0 1 9 14 69 227 302 697 2260
2019-12-12 15:30 4.39 159 3300 (1986) 0 (1954) 292 0 1 9 14 69 227 302 697 2260
2019-12-12 14:30 4.39 159 3300 (1986) 0 (1954) 292 0 1 9 14 69 227 302 697 2260
2019-12-12 13:30 4.40 161 3300 (1986) 0 (1954) 292 0 1 9 14 69 227 302 697 2260
2019-12-12 12:30 4.40 161 3300 (1986) 0 (1954) 292 0 1 9 14 69 227 302 697 2260
2019-12-12 11:30 4.40 161 3300 (1986) 0 (1954) 292 0 1 9 14 69 227 302 697 2260
2019-12-12 10:30 4.41 162 3300 (1986) 0 (1954) 292 0 1 9 14 69 227 302 697 2260
2019-12-12 09:30 4.41 162 3300 (1986) 0 (1954) 292 0 1 9 14 69 227 302 697 2260
2019-12-12 08:30 4.41 162 3300 (1986) 0 (1954) 292 0 1 9 14 69 227 302 697 2260
2019-12-12 07:30 4.42 164 3300 (1986) 0 (1954) 292 0 1 9 14 69 227 302 697 2260
2019-12-12 06:30 4.42 164 3300 (1986) 0 (1954) 292 0 1 9 14 69 227 302 697 2260
2019-12-12 05:30 4.42 164 3300 (1986) 0 (1954) 292 0 1 9 14 69 227 302 697 2260
2019-12-12 04:30 4.43 165 3300 (1986) 0 (1954) 292 0 1 9 14 69 227 302 697 2260
2019-12-12 03:30 4.43 165 3300 (1986) 0 (1954) 292 0 1 9 14 69 227 302 697 2260
2019-12-12 02:30 4.43 165 3300 (1986) 0 (1954) 292 0 1 9 14 69 227 302 697 2260
2019-12-12 01:30 4.44 167 3300 (1986) 0 (1954) 292 0 1 9 14 69 227 302 697 2260
2019-12-12 00:30 4.44 167 3300 (1986) 0 (1954) 292 0 1 9 14 69 227 302 697 2260
2019-12-11 23:30 4.44 167 4060 (1972) 0 (1954) 329 0 1 8 12 64 220 354 1250 1780
2019-12-11 22:30 4.44 167 4060 (1972) 0 (1954) 329 0 1 8 12 64 220 354 1250 1780
2019-12-11 21:30 4.45 169 4060 (1972) 0 (1954) 329 0 1 8 12 64 220 354 1250 1780
2019-12-11 20:30 4.45 169 4060 (1972) 0 (1954) 329 0 1 8 12 64 220 354 1250 1780
2019-12-11 19:30 4.45 169 4060 (1972) 0 (1954) 329 0 1 8 12 64 220 354 1250 1780
2019-12-11 18:30 4.46 170 4060 (1972) 0 (1954) 329 0 1 8 12 64 220 354 1250 1780
2019-12-11 17:30 4.46 170 4060 (1972) 0 (1954) 329 0 1 8 12 64 220 354 1250 1780
2019-12-11 16:30 4.46 170 4060 (1972) 0 (1954) 329 0 1 8 12 64 220 354 1250 1780
2019-12-11 15:30 4.47 172 4060 (1972) 0 (1954) 329 0 1 8 12 64 220 354 1250 1780
2019-12-11 14:30 4.47 172 4060 (1972) 0 (1954) 329 0 1 8 12 64 220 354 1250 1780
2019-12-11 13:30 4.47 172 4060 (1972) 0 (1954) 329 0 1 8 12 64 220 354 1250 1780
2019-12-11 12:30 4.49 175 4060 (1972) 0 (1954) 329 0 1 8 12 64 220 354 1250 1780
2019-12-11 11:30 4.48 174 4060 (1972) 0 (1954) 329 0 1 8 12 64 220 354 1250 1780
2019-12-11 10:30 4.49 175 4060 (1972) 0 (1954) 329 0 1 8 12 64 220 354 1250 1780
2019-12-11 09:30 4.50 177 4060 (1972) 0 (1954) 329 0 1 8 12 64 220 354 1250 1780
2019-12-11 08:30 4.50 177 4060 (1972) 0 (1954) 329 0 1 8 12 64 220 354 1250 1780
2019-12-11 07:30 4.51 179 4060 (1972) 0 (1954) 329 0 1 8 12 64 220 354 1250 1780
2019-12-11 06:30 4.51 179 4060 (1972) 0 (1954) 329 0 1 8 12 64 220 354 1250 1780
2019-12-11 05:30 4.51 179 4060 (1972) 0 (1954) 329 0 1 8 12 64 220 354 1250 1780
2019-12-11 04:30 4.52 180 4060 (1972) 0 (1954) 329 0 1 8 12 64 220 354 1250 1780
2019-12-11 03:30 4.53 182 4060 (1972) 0 (1954) 329 0 1 8 12 64 220 354 1250 1780
2019-12-11 02:30 4.53 182 4060 (1972) 0 (1954) 329 0 1 8 12 64 220 354 1250 1780
2019-12-11 01:30 4.54 184 4060 (1972) 0 (1954) 329 0 1 8 12 64 220 354 1250 1780
2019-12-11 00:30 4.54 184 4060 (1972) 0 (1954) 329 0 1 8 12 64 220 354 1250 1780
2019-12-10 23:30 4.55 185 2500 (1993) 0 (1954) 193 0 1 7 12 43 224 261 696 775
2019-12-10 22:30 4.55 185 2500 (1993) 0 (1954) 193 0 1 7 12 43 224 261 696 775
2019-12-10 21:30 4.55 185 2500 (1993) 0 (1954) 193 0 1 7 12 43 224 261 696 775
2019-12-10 20:30 4.56 187 2500 (1993) 0 (1954) 193 0 1 7 12 43 224 261 696 775
2019-12-10 19:30 4.56 187 2500 (1993) 0 (1954) 193 0 1 7 12 43 224 261 696 775
2019-12-10 18:30 4.56 187 2500 (1993) 0 (1954) 193 0 1 7 12 43 224 261 696 775
2019-12-10 17:30 4.57 189 2500 (1993) 0 (1954) 193 0 1 7 12 43 224 261 696 775
2019-12-10 16:30 4.57 189 2500 (1993) 0 (1954) 193 0 1 7 12 43 224 261 696 775
2019-12-10 15:30 4.57 189 2500 (1993) 0 (1954) 193 0 1 7 12 43 224 261 696 775
2019-12-10 14:30 4.58 191 2500 (1993) 0 (1954) 193 0 1 7 12 43 224 261 696 775
2019-12-10 13:30 4.58 191 2500 (1993) 0 (1954) 193 0 1 7 12 43 224 261 696 775
2019-12-10 12:30 4.58 191 2500 (1993) 0 (1954) 193 0 1 7 12 43 224 261 696 775
2019-12-10 11:30 4.59 192 2500 (1993) 0 (1954) 193 0 1 7 12 43 224 261 696 775
2019-12-10 10:30 4.59 192 2500 (1993) 0 (1954) 193 0 1 7 12 43 224 261 696 775
2019-12-10 09:30 4.60 194 2500 (1993) 0 (1954) 193 0 1 7 12 43 224 261 696 775
2019-12-10 08:30 4.60 194 2500 (1993) 0 (1954) 193 0 1 7 12 43 224 261 696 775
2019-12-10 07:30 4.60 194 2500 (1993) 0 (1954) 193 0 1 7 12 43 224 261 696 775
2019-12-10 06:30 4.61 196 2500 (1993) 0 (1954) 193 0 1 7 12 43 224 261 696 775
2019-12-10 05:30 4.62 198 2500 (1993) 0 (1954) 193 0 1 7 12 43 224 261 696 775
2019-12-10 04:30 4.62 198 2500 (1993) 0 (1954) 193 0 1 7 12 43 224 261 696 775
2019-12-10 03:30 4.62 198 2500 (1993) 0 (1954) 193 0 1 7 12 43 224 261 696 775
2019-12-10 02:30 4.63 200 2500 (1993) 0 (1954) 193 0 1 7 12 43 224 261 696 775
2019-12-10 01:30 4.63 200 2500 (1993) 0 (1954) 193 0 1 7 12 43 224 261 696 775
2019-12-10 00:30 4.64 201 2500 (1993) 0 (1954) 193 0 1 7 12 43 224 261 696 775
2019-12-09 23:30 4.64 201 1280 (1998) 0 (1954) 153 0 1 8 12 44 207 229 431 759
2019-12-09 22:30 4.65 203 1280 (1998) 0 (1954) 153 0 1 8 12 44 207 229 431 759
2019-12-09 21:30 4.65 203 1280 (1998) 0 (1954) 153 0 1 8 12 44 207 229 431 759
2019-12-09 20:30 4.65 203 1280 (1998) 0 (1954) 153 0 1 8 12 44 207 229 431 759
2019-12-09 19:30 4.66 205 1280 (1998) 0 (1954) 153 0 1 8 12 44 207 229 431 759
2019-12-09 18:30 4.66 205 1280 (1998) 0 (1954) 153 0 1 8 12 44 207 229 431 759
2019-12-09 17:30 4.66 205 1280 (1998) 0 (1954) 153 0 1 8 12 44 207 229 431 759
2019-12-09 16:30 4.67 207 1280 (1998) 0 (1954) 153 0 1 8 12 44 207 229 431 759
2019-12-09 15:30 4.67 207 1280 (1998) 0 (1954) 153 0 1 8 12 44 207 229 431 759
2019-12-09 14:30 4.68 209 1280 (1998) 0 (1954) 153 0 1 8 12 44 207 229 431 759
2019-12-09 13:30 4.67 207 1280 (1998) 0 (1954) 153 0 1 8 12 44 207 229 431 759
2019-12-09 12:30 4.68 209 1280 (1998) 0 (1954) 153 0 1 8 12 44 207 229 431 759
2019-12-09 11:30 4.68 209 1280 (1998) 0 (1954) 153 0 1 8 12 44 207 229 431 759
2019-12-09 10:30 4.68 209 1280 (1998) 0 (1954) 153 0 1 8 12 44 207 229 431 759
2019-12-09 09:30 4.69 211 1280 (1998) 0 (1954) 153 0 1 8 12 44 207 229 431 759
2019-12-09 08:30 4.69 211 1280 (1998) 0 (1954) 153 0 1 8 12 44 207 229 431 759
2019-12-09 07:30 4.69 211 1280 (1998) 0 (1954) 153 0 1 8 12 44 207 229 431 759
2019-12-09 06:30 4.69 211 1280 (1998) 0 (1954) 153 0 1 8 12 44 207 229 431 759
2019-12-09 05:30 4.69 211 1280 (1998) 0 (1954) 153 0 1 8 12 44 207 229 431 759
2019-12-09 04:30 4.70 212 1280 (1998) 0 (1954) 153 0 1 8 12 44 207 229 431 759
2019-12-09 03:30 4.70 212 1280 (1998) 0 (1954) 153 0 1 8 12 44 207 229 431 759
2019-12-09 02:30 4.70 212 1280 (1998) 0 (1954) 153 0 1 8 12 44 207 229 431 759
2019-12-09 01:30 4.70 212 1280 (1998) 0 (1954) 153 0 1 8 12 44 207 229 431 759
2019-12-09 00:30 4.70 212 1280 (1998) 0 (1954) 153 0 1 8 12 44 207 229 431 759
2019-12-08 23:30 4.71 214 3530 (2005) 0 (1954) 187 0 1 8 11 45 215 252 419 645
2019-12-08 22:30 4.71 214 3530 (2005) 0 (1954) 187 0 1 8 11 45 215 252 419 645
2019-12-08 21:30 4.71 214 3530 (2005) 0 (1954) 187 0 1 8 11 45 215 252 419 645
2019-12-08 20:30 4.72 216 3530 (2005) 0 (1954) 187 0 1 8 11 45 215 252 419 645
2019-12-08 19:30 4.72 216 3530 (2005) 0 (1954) 187 0 1 8 11 45 215 252 419 645
2019-12-08 18:30 4.72 216 3530 (2005) 0 (1954) 187 0 1 8 11 45 215 252 419 645
2019-12-08 17:30 4.72 216 3530 (2005) 0 (1954) 187 0 1 8 11 45 215 252 419 645
2019-12-08 16:30 4.73 218 3530 (2005) 0 (1954) 187 0 1 8 11 45 215 252 419 645
2019-12-08 15:30 4.73 218 3530 (2005) 0 (1954) 187 0 1 8 11 45 215 252 419 645
2019-12-08 14:30 4.73 218 3530 (2005) 0 (1954) 187 0 1 8 11 45 215 252 419 645
2019-12-08 13:30 4.74 220 3530 (2005) 0 (1954) 187 0 1 8 11 45 215 252 419 645
2019-12-08 12:30 4.74 220 3530 (2005) 0 (1954) 187 0 1 8 11 45 215 252 419 645
2019-12-08 11:30 4.74 220 3530 (2005) 0 (1954) 187 0 1 8 11 45 215 252 419 645
2019-12-08 10:30 4.75 222 3530 (2005) 0 (1954) 187 0 1 8 11 45 215 252 419 645
2019-12-08 09:30 4.75 222 3530 (2005) 0 (1954) 187 0 1 8 11 45 215 252 419 645
2019-12-08 08:30 4.76 224 3530 (2005) 0 (1954) 187 0 1 8 11 45 215 252 419 645
2019-12-08 07:30 4.76 224 3530 (2005) 0 (1954) 187 0 1 8 11 45 215 252 419 645
2019-12-08 06:30 4.77 226 3530 (2005) 0 (1954) 187 0 1 8 11 45 215 252 419 645
2019-12-08 05:30 4.77 226 3530 (2005) 0 (1954) 187 0 1 8 11 45 215 252 419 645
2019-12-08 04:30 4.77 226 3530 (2005) 0 (1954) 187 0 1 8 11 45 215 252 419 645
2019-12-08 03:30 4.78 228 3530 (2005) 0 (1954) 187 0 1 8 11 45 215 252 419 645
2019-12-08 02:30 4.78 228 3530 (2005) 0 (1954) 187 0 1 8 11 45 215 252 419 645
2019-12-08 01:30 4.79 229 3530 (2005) 0 (1954) 187 0 1 8 11 45 215 252 419 645
2019-12-08 00:30 4.80 231 3530 (2005) 0 (1954) 187 0 1 8 11 45 215 252 419 645
2019-12-07 23:30 4.80 231 4110 (2005) 0 (2007) 225 0 0 7 10 47 207 263 380 770
2019-12-07 22:30 4.81 233 4110 (2005) 0 (2007) 225 0 0 7 10 47 207 263 380 770
2019-12-07 21:30 4.81 233 4110 (2005) 0 (2007) 225 0 0 7 10 47 207 263 380 770
2019-12-07 20:30 4.82 235 4110 (2005) 0 (2007) 225 0 0 7 10 47 207 263 380 770
2019-12-07 19:30 4.82 235 4110 (2005) 0 (2007) 225 0 0 7 10 47 207 263 380 770
2019-12-07 18:30 4.83 237 4110 (2005) 0 (2007) 225 0 0 7 10 47 207 263 380 770
2019-12-07 17:30 4.84 239 4110 (2005) 0 (2007) 225 0 0 7 10 47 207 263 380 770
2019-12-07 16:30 4.84 239 4110 (2005) 0 (2007) 225 0 0 7 10 47 207 263 380 770
2019-12-07 15:30 4.85 241 4110 (2005) 0 (2007) 225 0 0 7 10 47 207 263 380 770
2019-12-07 14:30 4.86 243 4110 (2005) 0 (2007) 225 0 0 7 10 47 207 263 380 770
2019-12-07 13:30 4.86 243 4110 (2005) 0 (2007) 225 0 0 7 10 47 207 263 380 770
2019-12-07 12:30 4.86 243 4110 (2005) 0 (2007) 225 0 0 7 10 47 207 263 380 770
2019-12-07 11:30 4.87 245 4110 (2005) 0 (2007) 225 0 0 7 10 47 207 263 380 770
2019-12-07 10:30 4.87 245 4110 (2005) 0 (2007) 225 0 0 7 10 47 207 263 380 770
2019-12-07 09:30 4.88 247 4110 (2005) 0 (2007) 225 0 0 7 10 47 207 263 380 770
2019-12-07 08:30 4.88 247 4110 (2005) 0 (2007) 225 0 0 7 10 47 207 263 380 770
2019-12-07 07:30 4.89 249 4110 (2005) 0 (2007) 225 0 0 7 10 47 207 263 380 770
2019-12-07 06:30 4.90 251 4110 (2005) 0 (2007) 225 0 0 7 10 47 207 263 380 770
2019-12-07 05:30 4.91 253 4110 (2005) 0 (2007) 225 0 0 7 10 47 207 263 380 770
2019-12-07 04:30 4.91 253 4110 (2005) 0 (2007) 225 0 0 7 10 47 207 263 380 770
2019-12-07 03:30 4.92 255 4110 (2005) 0 (2007) 225 0 0 7 10 47 207 263 380 770
2019-12-07 02:30 4.93 257 4110 (2005) 0 (2007) 225 0 0 7 10 47 207 263 380 770
2019-12-07 01:30 4.94 260 4110 (2005) 0 (2007) 225 0 0 7 10 47 207 263 380 770
2019-12-07 00:30 4.94 260 4110 (2005) 0 (2007) 225 0 0 7 10 47 207 263 380 770
2019-12-06 23:30 4.95 262 3560 (1974) 0 (2007) 216 0 0 7 11 47 207 264 440 1160
2019-12-06 22:30 4.96 264 3560 (1974) 0 (2007) 216 0 0 7 11 47 207 264 440 1160
2019-12-06 21:30 4.97 266 3560 (1974) 0 (2007) 216 0 0 7 11 47 207 264 440 1160
2019-12-06 20:30 4.98 268 3560 (1974) 0 (2007) 216 0 0 7 11 47 207 264 440 1160
2019-12-06 19:30 4.98 268 3560 (1974) 0 (2007) 216 0 0 7 11 47 207 264 440 1160
2019-12-06 18:30 4.99 270 3560 (1974) 0 (2007) 216 0 0 7 11 47 207 264 440 1160
2019-12-06 17:30 5.00 272 3560 (1974) 0 (2007) 216 0 0 7 11 47 207 264 440 1160
2019-12-06 16:30 5.01 274 3560 (1974) 0 (2007) 216 0 0 7 11 47 207 264 440 1160
2019-12-06 15:30 5.02 276 3560 (1974) 0 (2007) 216 0 0 7 11 47 207 264 440 1160
2019-12-06 14:30 5.03 279 3560 (1974) 0 (2007) 216 0 0 7 11 47 207 264 440 1160
2019-12-06 13:30 5.03 279 3560 (1974) 0 (2007) 216 0 0 7 11 47 207 264 440 1160
2019-12-06 12:30 5.04 281 3560 (1974) 0 (2007) 216 0 0 7 11 47 207 264 440 1160
2019-12-06 11:30 5.05 283 3560 (1974) 0 (2007) 216 0 0 7 11 47 207 264 440 1160
2019-12-06 10:30 5.06 285 3560 (1974) 0 (2007) 216 0 0 7 11 47 207 264 440 1160
2019-12-06 09:30 5.06 285 3560 (1974) 0 (2007) 216 0 0 7 11 47 207 264 440 1160
2019-12-06 08:30 5.07 287 3560 (1974) 0 (2007) 216 0 0 7 11 47 207 264 440 1160
2019-12-06 07:30 5.08 289 3560 (1974) 0 (2007) 216 0 0 7 11 47 207 264 440 1160
2019-12-06 06:30 5.09 292 3560 (1974) 0 (2007) 216 0 0 7 11 47 207 264 440 1160
2019-12-06 05:30 5.09 292 3560 (1974) 0 (2007) 216 0 0 7 11 47 207 264 440 1160
2019-12-06 04:30 5.10 294 3560 (1974) 0 (2007) 216 0 0 7 11 47 207 264 440 1160
2019-12-06 03:30 5.11 296 3560 (1974) 0 (2007) 216 0 0 7 11 47 207 264 440 1160
2019-12-06 02:30 5.12 298 3560 (1974) 0 (2007) 216 0 0 7 11 47 207 264 440 1160
2019-12-06 01:30 5.12 298 3560 (1974) 0 (2007) 216 0 0 7 11 47 207 264 440 1160
2019-12-06 00:30 5.13 301 3560 (1974) 0 (2007) 216 0 0 7 11 47 207 264 440 1160

A total of 174 rows are displayed for years 1924 through 2018.

Trips for Cedar Creek (Missouri), Pleasant View (06919500)

DateStartEndDistanceConditionDischargeHeightFishingDetails

A total of 0 rows are displayed.

Condition Descriptions

Fishing Conditions

Fish Species

Notes

Classic Trip List

The classic River Trips application is still available for use. It is updated with the new system using a data retrofit. It is no longer maintained. The original River Trips application is no longer updated (as of 1 Dec 2016) but can be checked for errors or for the condition of the data before it was converted to the new system.